createdAt,value
2022-08-09T00:02:01.813Z,101924.41
2022-08-09T00:05:03.437Z,101930.34
2022-08-09T00:07:54.400Z,101926.97
2022-08-09T00:10:42.993Z,101927.06
2022-08-09T00:13:23.818Z,101929.84
2022-08-09T00:16:12.912Z,101932.22
2022-08-09T00:18:53.820Z,101933.13
2022-08-09T00:21:55.562Z,101937.72
2022-08-09T00:24:40.047Z,101925.34
2022-08-09T00:27:29.123Z,101931.56
2022-08-09T00:30:26.043Z,101933.59
2022-08-09T00:33:13.951Z,101932.63
2022-08-09T00:35:55.574Z,101938.94
2022-08-09T00:38:45.759Z,101937.63
2022-08-09T00:44:10.711Z,101928.63
2022-08-09T00:44:46.975Z,101934.09
2022-08-09T00:47:39.637Z,101923.56
2022-08-09T00:50:21.576Z,101933.34
2022-08-09T00:53:14.224Z,101926.81
2022-08-09T00:56:05.369Z,101931.22
2022-08-09T00:58:58.955Z,101929.53
2022-08-09T01:01:45.321Z,101927.91
2022-08-09T01:04:53.843Z,101936.03
2022-08-09T01:08:11.997Z,101938.16
2022-08-09T01:11:14.865Z,101941.59
2022-08-09T01:14:04.167Z,101937.19
2022-08-09T01:16:55.208Z,101942.50
2022-08-09T01:20:01.770Z,101939.03
2022-08-09T01:24:00.415Z,101930.25
2022-08-09T01:26:42.787Z,101932.19
2022-08-09T01:29:55.117Z,101932.94
2022-08-09T01:32:50.022Z,101925.81
2022-08-09T01:35:55.723Z,101936.47
2022-08-09T01:38:46.865Z,101933.84
2022-08-09T01:41:55.549Z,101926.84
2022-08-09T01:44:56.832Z,101936.56
2022-08-09T01:47:49.718Z,101928.84
2022-08-09T01:50:37.064Z,101925.31
2022-08-09T01:53:41.195Z,101921.72
2022-08-09T01:56:23.980Z,101926.22
2022-08-09T01:59:16.100Z,101920.94
2022-08-09T02:02:01.481Z,101919.13
2022-08-09T02:04:49.856Z,101923.63
2022-08-09T02:08:35.412Z,101926.34
2022-08-09T02:10:50.842Z,101921.81
2022-08-09T02:13:40.543Z,101925.41
2022-08-09T02:16:33.679Z,101920.03
2022-08-09T02:19:16.024Z,101925.53
2022-08-09T02:22:11.272Z,101919.41
2022-08-09T02:24:58.236Z,101920.28
2022-08-09T02:28:00.267Z,101926.38
2022-08-09T02:30:52.980Z,101935.19
2022-08-09T02:34:07.467Z,101941.44
2022-08-09T02:36:53.579Z,101924.72
2022-08-09T02:39:49.808Z,101938.03
2022-08-09T02:42:43.983Z,101944.22
2022-08-09T02:45:45.383Z,101938.88
2022-08-09T02:48:39.074Z,101936.22
2022-08-09T02:51:37.139Z,101930.13
2022-08-09T02:54:30.985Z,101936.38
2022-08-09T02:57:23.407Z,101933.75
2022-08-09T03:00:25.255Z,101936.47
2022-08-09T03:03:07.982Z,101931.19
2022-08-09T03:05:58.054Z,101935.63
2022-08-09T03:08:39.898Z,101934.66
2022-08-09T03:12:06.094Z,101928.47
2022-08-09T03:14:32.963Z,101930.34
2022-08-09T03:17:27.098Z,101928.50
2022-08-09T03:20:11.575Z,101926.78
2022-08-09T03:23:14.565Z,101925.94
2022-08-09T03:26:03.279Z,101923.38
2022-08-09T03:28:59.341Z,101923.34
2022-08-09T03:31:42.735Z,101915.38
2022-08-09T03:34:54.090Z,101920.63
2022-08-09T03:37:55.774Z,101921.56
2022-08-09T03:40:46.026Z,101922.47
2022-08-09T03:43:32.098Z,101926.13
2022-08-09T03:46:30.307Z,101929.63
2022-08-09T03:49:21.343Z,101927.03
2022-08-09T03:52:07.396Z,101926.13
2022-08-09T03:54:56.754Z,101919.09
2022-08-09T03:57:53.600Z,101919.00
2022-08-09T04:00:51.237Z,101918.09
2022-08-09T04:03:46.495Z,101929.59
2022-08-09T04:06:48.935Z,101942.84
2022-08-09T04:09:48.004Z,101939.34
2022-08-09T04:12:50.033Z,101934.97
2022-08-09T04:16:17.651Z,101926.16
2022-08-09T04:18:39.948Z,101929.78
2022-08-09T04:21:22.152Z,101940.31
2022-08-09T04:24:09.329Z,101941.22
2022-08-09T04:26:52.035Z,101941.28
2022-08-09T04:29:49.886Z,101943.00
2022-08-09T04:32:33.870Z,101935.06
2022-08-09T04:35:23.962Z,101946.56
2022-08-09T04:38:05.095Z,101938.63
2022-08-09T04:40:57.292Z,101936.91
2022-08-09T04:43:38.647Z,101936.97
2022-08-09T04:46:58.137Z,101942.25
2022-08-09T04:49:55.094Z,101942.25
2022-08-09T04:52:46.143Z,101947.50
2022-08-09T04:55:39.381Z,101947.53
2022-08-09T04:58:31.920Z,101944.91
2022-08-09T05:01:16.304Z,101948.44
2022-08-09T05:04:08.279Z,101950.25
2022-08-09T05:06:51.979Z,101949.19
2022-08-09T05:09:42.110Z,101961.34
2022-08-09T05:12:26.085Z,101946.78
2022-08-09T05:15:24.568Z,101946.97
2022-08-09T05:18:42.621Z,101959.16
2022-08-09T05:21:30.403Z,101959.66
2022-08-09T05:24:17.163Z,101963.16
2022-08-09T05:27:04.983Z,101952.31
2022-08-09T05:29:48.262Z,101959.97
2022-08-09T05:32:36.969Z,101957.16
2022-08-09T05:35:23.108Z,101971.09
2022-08-09T05:38:22.120Z,101946.13
2022-08-09T05:41:04.138Z,101954.44
2022-08-09T05:43:51.731Z,101953.41
2022-08-09T05:46:39.093Z,101957.72
2022-08-09T05:50:32.426Z,101963.53
2022-08-09T05:52:30.707Z,101965.31
2022-08-09T05:55:20.472Z,101962.03
2022-08-09T05:58:08.128Z,101956.19
2022-08-09T06:01:01.386Z,101975.59
2022-08-09T06:03:58.150Z,101964.41
2022-08-09T06:06:46.777Z,101974.47
2022-08-09T06:09:53.940Z,101972.97
2022-08-09T06:12:40.015Z,101974.78
2022-08-09T06:15:32.299Z,101980.16
2022-08-09T06:18:13.014Z,101984.19
2022-08-09T06:21:04.434Z,101991.03
2022-08-09T06:23:57.224Z,101989.28
2022-08-09T06:26:54.144Z,102000.06
2022-08-09T06:29:58.503Z,101995.84
2022-08-09T06:32:53.182Z,101998.78
2022-08-09T06:35:57.048Z,101995.59
2022-08-09T06:38:49.913Z,102000.69
2022-08-09T06:42:01.241Z,102000.22
2022-08-09T06:44:39.115Z,102004.59
2022-08-09T06:47:39.907Z,102003.72
2022-08-09T06:50:31.819Z,102005.81
2022-08-09T06:53:13.045Z,102011.56
2022-08-09T06:56:00.519Z,102012.06
2022-08-09T07:00:52.110Z,102012.94
2022-08-09T07:01:58.095Z,102010.03
2022-08-09T07:04:41.864Z,102012.44
2022-08-09T07:08:00.168Z,102013.25
2022-08-09T07:10:33.388Z,102015.56
2022-08-09T07:13:28.266Z,102010.50
2022-08-09T07:16:41.446Z,102029.75
2022-08-09T07:19:23.496Z,102020.44
2022-08-09T07:22:12.042Z,102022.03
2022-08-09T07:25:09.874Z,102022.47
2022-08-09T07:27:53.115Z,102015.50
2022-08-09T07:30:41.165Z,102009.97
2022-08-09T07:33:22.076Z,102016.78
2022-08-09T07:36:14.888Z,102018.03
2022-08-09T07:39:01.041Z,102022.88
2022-08-09T07:41:52.306Z,102023.75
2022-08-09T07:44:53.290Z,102022.91
2022-08-09T07:48:00.723Z,102015.88
2022-08-09T07:50:52.733Z,102020.00
2022-08-09T07:54:04.741Z,102021.03
2022-08-09T07:56:49.620Z,102016.72
2022-08-09T07:59:51.897Z,102016.31
2022-08-09T08:02:48.045Z,102013.59
2022-08-09T08:05:39.281Z,102013.56
2022-08-09T08:09:00.056Z,102020.41
2022-08-09T08:12:11.015Z,102014.09
2022-08-09T08:14:45.086Z,102010.53
2022-08-09T08:17:52.246Z,102011.59
2022-08-09T08:20:36.103Z,102010.16
2022-08-09T08:23:27.346Z,102014.63
2022-08-09T08:26:11.447Z,102024.91
2022-08-09T08:28:59.205Z,102019.75
2022-08-09T08:32:03.903Z,102009.75
2022-08-09T08:34:52.133Z,102007.47
2022-08-09T08:37:41.453Z,102001.00
2022-08-09T08:40:49.644Z,102009.84
2022-08-09T08:43:32.351Z,102003.59
2022-08-09T08:46:32.459Z,102005.94
2022-08-09T08:49:24.710Z,102010.38
2022-08-09T08:52:57.796Z,102004.41
2022-08-09T08:55:29.921Z,102017.50
2022-08-09T08:58:14.511Z,101996.16
2022-08-09T09:01:09.094Z,102001.72
2022-08-09T09:04:02.237Z,101994.94
2022-08-09T09:06:50.859Z,102004.41
2022-08-09T09:09:58.080Z,101996.59
2022-08-09T09:12:43.141Z,101993.34
2022-08-09T09:15:28.681Z,101992.31
2022-08-09T09:18:22.579Z,101991.97
2022-08-09T09:21:06.241Z,101994.91
2022-08-09T09:24:04.464Z,101991.47
2022-08-09T09:26:48.289Z,101989.13
2022-08-09T09:30:12.316Z,101988.81
2022-08-09T09:32:49.399Z,101992.72
2022-08-09T09:35:37.164Z,101974.13
2022-08-09T09:38:27.578Z,101990.25
2022-08-09T09:41:15.130Z,101977.66
2022-08-09T09:44:12.680Z,101977.28
2022-08-09T09:47:24.138Z,101977.19
2022-08-09T09:50:16.895Z,101972.78
2022-08-09T09:53:01.382Z,101979.13
2022-08-09T09:56:06.725Z,101969.66
2022-08-09T09:59:01.841Z,101974.94
2022-08-09T10:01:49.827Z,101966.13
2022-08-09T10:04:30.564Z,101966.84
2022-08-09T10:07:31.123Z,101941.56
2022-08-09T10:10:14.386Z,101950.25
2022-08-09T10:13:06.241Z,101967.13
2022-08-09T10:16:54.610Z,101964.19
2022-08-09T10:19:12.570Z,101954.19
2022-08-09T10:21:57.250Z,101946.63
2022-08-09T10:24:49.987Z,101947.22
2022-08-09T10:27:38.591Z,101940.75
2022-08-09T10:34:08.729Z,101943.84
2022-08-09T10:36:46.292Z,101945.84
2022-08-09T10:39:30.213Z,101934.31
2022-08-09T10:42:29.739Z,101945.75
2022-08-09T10:45:16.746Z,101940.75
2022-08-09T10:48:39.174Z,101941.41
2022-08-09T10:51:41.301Z,101936.06
2022-08-09T10:54:31.237Z,101927.94
2022-08-09T10:57:22.190Z,101930.13
2022-08-09T11:00:05.311Z,101929.19
2022-08-09T11:03:11.853Z,101920.06
2022-08-09T11:06:26.121Z,101920.09
2022-08-09T11:09:15.728Z,101920.56
2022-08-09T11:12:05.935Z,101923.66
2022-08-09T11:15:33.598Z,101922.66
2022-08-09T11:18:15.883Z,101924.91
2022-08-09T11:21:06.593Z,101909.91
2022-08-09T11:24:07.310Z,101907.88
2022-08-09T11:26:59.714Z,101907.78
2022-08-09T11:30:06.254Z,101894.78
2022-08-09T11:33:26.839Z,101901.97
2022-08-09T11:36:08.321Z,101903.03
2022-08-09T11:39:11.261Z,101895.84
2022-08-09T11:41:58.522Z,101889.50
2022-08-09T11:44:52.293Z,101904.66
2022-08-09T11:48:02.732Z,101887.69
2022-08-09T11:52:49.464Z,101884.06
2022-08-09T11:54:35.026Z,101880.53
2022-08-09T11:58:00.441Z,101871.59
2022-08-09T12:01:08.336Z,101885.81
2022-08-09T12:03:57.499Z,101870.38
2022-08-09T12:06:58.361Z,101859.31
2022-08-09T12:09:39.972Z,101847.41
2022-08-09T12:12:53.393Z,101853.66
2022-08-09T12:15:48.867Z,101841.88
2022-08-09T12:18:39.376Z,101860.31
2022-08-09T12:21:38.866Z,101843.75
2022-08-09T12:24:30.328Z,101846.41
2022-08-09T12:29:13.368Z,101849.28
2022-08-09T12:30:36.927Z,101834.72
2022-08-09T12:33:20.986Z,101841.50
2022-08-09T12:36:27.719Z,101849.03
2022-08-09T12:39:21.688Z,101834.75
2022-08-09T12:42:17.144Z,101836.72
2022-08-09T12:45:00.109Z,101825.47
2022-08-09T12:47:50.317Z,101832.25
2022-08-09T12:50:31.269Z,101823.63
2022-08-09T12:53:38.810Z,101826.72
2022-08-09T12:56:36.999Z,101827.28
2022-08-09T12:59:57.607Z,101817.63
2022-08-09T13:02:31.427Z,101816.06
2022-08-09T13:05:20.403Z,101819.53
2022-08-09T13:08:39.776Z,101804.44
2022-08-09T13:11:39.483Z,101804.31
2022-08-09T13:14:41.251Z,101795.94
2022-08-09T13:18:03.319Z,101793.09
2022-08-09T13:21:04.183Z,101793.94
2022-08-09T13:24:07.254Z,101791.69
2022-08-09T13:26:54.656Z,101791.88
2022-08-09T13:30:04.323Z,101798.47
2022-08-09T13:33:03.293Z,101794.81
2022-08-09T13:36:39.506Z,101811.19
2022-08-09T13:38:54.587Z,101790.66
2022-08-09T13:41:58.091Z,101785.38
2022-08-09T13:44:45.303Z,101779.31
2022-08-09T13:47:49.432Z,101776.78
2022-08-09T13:50:37.683Z,101785.91
2022-08-09T13:53:18.983Z,101788.06
2022-08-09T13:56:07.663Z,101777.28
2022-08-09T13:58:54.428Z,101773.53
2022-08-09T14:02:00.816Z,101768.63
2022-08-09T14:04:59.688Z,101762.75
2022-08-09T14:07:48.680Z,101762.66
2022-08-09T14:10:46.067Z,101765.44
2022-08-09T14:14:22.794Z,101751.44
2022-08-09T14:16:40.266Z,101761.78
2022-08-09T14:19:33.247Z,101763.88
2022-08-09T14:22:16.457Z,101768.69
2022-08-09T14:25:05.693Z,101746.09
2022-08-09T14:27:58.299Z,101736.53
2022-08-09T14:30:49.319Z,101739.31
2022-08-09T14:33:30.423Z,101754.84
2022-08-09T14:36:26.322Z,101749.94
2022-08-09T14:39:17.963Z,101739.25
2022-08-09T14:42:07.341Z,101744.78
2022-08-09T14:44:59.505Z,101750.78
2022-08-09T14:47:57.391Z,101745.22
2022-08-09T14:50:51.960Z,101738.38
2022-08-09T14:53:38.922Z,101739.56
2022-08-09T14:56:26.665Z,101733.59
2022-08-09T14:59:08.558Z,101729.59
2022-08-09T15:02:01.461Z,101722.47
2022-08-09T15:04:44.843Z,101720.78
2022-08-09T15:07:35.461Z,101721.53
2022-08-09T15:10:17.189Z,101721.16
2022-08-09T15:13:08.904Z,101714.72
2022-08-09T15:15:51.978Z,101707.69
2022-08-09T15:18:41.446Z,101713.06
2022-08-09T15:21:55.135Z,101696.72
2022-08-09T15:24:34.212Z,101692.03
2022-08-09T15:27:16.212Z,101690.81
2022-08-09T15:30:59.254Z,101697.28
2022-08-09T15:33:07.256Z,101694.56
2022-08-09T15:36:02.168Z,101692.13
2022-08-09T15:38:47.369Z,101681.88
2022-08-09T15:41:35.504Z,101687.16
2022-08-09T15:44:19.845Z,101684.38
2022-08-09T15:47:22.691Z,101672.19
2022-08-09T15:50:22.730Z,101676.72
2022-08-09T15:53:18.877Z,101673.56
2022-08-09T15:56:23.338Z,101664.91
2022-08-09T15:59:11.466Z,101655.94
2022-08-09T16:01:59.131Z,101669.44
2022-08-09T16:04:42.673Z,101663.78
2022-08-09T16:07:29.378Z,101656.94
2022-08-09T16:10:54.966Z,101654.63
2022-08-09T16:14:04.688Z,101654.47
2022-08-09T16:16:31.752Z,101646.09
2022-08-09T16:19:21.393Z,101638.97
2022-08-09T16:22:03.552Z,101647.00
2022-08-09T16:24:56.750Z,101646.22
2022-08-09T16:27:41.525Z,101639.28
2022-08-09T16:30:29.523Z,101652.59
2022-08-09T16:33:12.422Z,101641.50
2022-08-09T16:36:09.087Z,101643.16
2022-08-09T16:38:55.527Z,101637.56
2022-08-09T16:42:02.621Z,101635.81
2022-08-09T16:44:45.649Z,101642.63
2022-08-09T16:50:58.726Z,101640.81
2022-08-09T16:54:02.456Z,101633.59
2022-08-09T16:56:50.854Z,101636.69
2022-08-09T16:59:34.895Z,101641.22
2022-08-09T17:02:23.575Z,101638.03
2022-08-09T17:05:07.180Z,101643.25
2022-08-09T17:08:47.087Z,101627.53
2022-08-09T17:11:00.429Z,101636.47
2022-08-09T17:13:48.548Z,101639.94
2022-08-09T17:16:42.433Z,101630.56
2022-08-09T17:20:05.147Z,101628.94
2022-08-09T17:22:33.666Z,101623.84
2022-08-09T17:25:23.884Z,101629.31
2022-08-09T17:28:10.418Z,101635.31
2022-08-09T17:31:02.324Z,101639.94
2022-08-09T17:33:44.542Z,101628.53
2022-08-09T17:36:40.524Z,101622.97
2022-08-09T17:39:53.153Z,101623.91
2022-08-09T17:42:42.664Z,101617.66
2022-08-09T17:46:01.774Z,101613.22
2022-08-09T17:48:54.432Z,101619.28
2022-08-09T17:51:43.483Z,101621.50
2022-08-09T17:54:29.696Z,101625.25
2022-08-09T17:58:02.180Z,101626.03
2022-08-09T18:00:18.569Z,101615.03
2022-08-09T18:03:30.479Z,101622.34
2022-08-09T18:06:31.351Z,101621.84
2022-08-09T18:09:16.295Z,101620.88
2022-08-09T18:12:17.386Z,101638.97
2022-08-09T18:15:04.590Z,101623.47
2022-08-09T18:18:03.691Z,101626.53
2022-08-09T18:20:54.368Z,101630.63
2022-08-09T18:24:11.361Z,101632.81
2022-08-09T18:26:52.500Z,101644.19
2022-08-09T18:30:35.698Z,101632.13
2022-08-09T18:32:43.831Z,101639.03
2022-08-09T18:35:58.309Z,101642.47
2022-08-09T18:38:34.872Z,101651.19
2022-08-09T18:41:27.635Z,101652.69
2022-08-09T18:44:13.204Z,101649.56
2022-08-09T18:47:15.033Z,101658.56
2022-08-09T18:50:05.796Z,101645.44
2022-08-09T18:52:50.814Z,101663.63
2022-08-09T18:55:56.385Z,101655.41
2022-08-09T18:58:38.911Z,101668.31
2022-08-09T19:01:27.486Z,101668.38
2022-08-09T19:04:35.159Z,101669.44
2022-08-09T19:07:22.580Z,101675.03
2022-08-09T19:10:17.230Z,101674.25
2022-08-09T19:13:22.071Z,101678.47
2022-08-09T19:16:07.088Z,101679.16
2022-08-09T19:18:57.902Z,101683.03
2022-08-09T19:21:52.373Z,101698.19
2022-08-09T19:25:09.054Z,101691.75
2022-08-09T19:27:51.041Z,101693.47
2022-08-09T19:30:44.620Z,101700.41
2022-08-09T19:33:25.945Z,101706.78
2022-08-09T19:36:16.891Z,101700.91
2022-08-09T19:38:57.670Z,101701.06
2022-08-09T19:41:47.499Z,101712.75
2022-08-09T19:44:29.623Z,101711.66
2022-08-09T19:47:27.076Z,101711.66
2022-08-09T19:50:50.162Z,101718.34
2022-08-09T19:53:20.854Z,101725.13
2022-08-09T19:56:07.641Z,101738.59
2022-08-09T19:59:39.894Z,101729.88
2022-08-09T20:02:17.111Z,101738.28
2022-08-09T20:05:11.361Z,101746.47
2022-08-09T20:08:05.318Z,101746.81
2022-08-09T20:10:46.945Z,101750.59
2022-08-09T20:13:37.536Z,101749.09
2022-08-09T20:16:37.975Z,101747.56
2022-08-09T20:19:47.765Z,101752.84
2022-08-09T20:22:32.018Z,101762.19
2022-08-09T20:25:23.089Z,101758.94
2022-08-09T20:28:03.546Z,101760.53
2022-08-09T20:30:54.572Z,101766.31
2022-08-09T20:33:41.024Z,101771.88
2022-08-09T20:36:30.054Z,101759.50
2022-08-09T20:40:13.604Z,101759.41
2022-08-09T20:42:23.714Z,101762.09
2022-08-09T20:45:59.461Z,101763.22
2022-08-09T20:48:21.108Z,101776.16
2022-08-09T20:51:19.706Z,101775.72
2022-08-09T20:54:00.703Z,101774.66
2022-08-09T20:56:54.578Z,101771.47
2022-08-09T21:00:20.700Z,101777.09
2022-08-09T21:02:47.522Z,101775.72
2022-08-09T21:05:52.070Z,101781.56
2022-08-09T21:08:39.578Z,101774.16
2022-08-09T21:14:36.986Z,101772.44
2022-08-09T21:18:22.257Z,101774.09
2022-08-09T21:20:31.175Z,101780.16
2022-08-09T21:23:14.459Z,101780.38
2022-08-09T21:26:04.495Z,101775.38
2022-08-09T21:28:55.583Z,101774.16
2022-08-09T21:31:49.347Z,101774.69
2022-08-09T21:34:31.897Z,101777.22
2022-08-09T21:37:22.828Z,101770.94
2022-08-09T21:40:04.777Z,101771.72
2022-08-09T21:46:01.022Z,101775.91
2022-08-09T21:48:50.602Z,101781.56
2022-08-09T21:51:36.011Z,101779.50
2022-08-09T21:54:32.597Z,101785.81
2022-08-09T21:57:25.280Z,101787.66
2022-08-09T22:00:42.579Z,101778.84
2022-08-09T22:03:25.483Z,101777.91
2022-08-09T22:06:13.989Z,101783.13
2022-08-09T22:08:55.595Z,101783.63
2022-08-09T22:12:05.733Z,101790.72
2022-08-09T22:14:47.716Z,101779.06
2022-08-09T22:17:37.880Z,101776.09
2022-08-09T22:20:27.766Z,101777.81
2022-08-09T22:23:20.929Z,101773.59
2022-08-09T22:26:12.386Z,101779.13
2022-08-09T22:29:07.159Z,101782.03
2022-08-09T22:31:56.204Z,101778.69
2022-08-09T22:34:45.976Z,101784.00
2022-08-09T22:37:40.248Z,101787.25
2022-08-09T22:40:28.661Z,101784.44
2022-08-09T22:43:16.942Z,101784.72
2022-08-09T22:48:11.357Z,101787.50
2022-08-09T22:49:27.743Z,101784.22
2022-08-09T22:52:10.610Z,101779.97
2022-08-09T22:54:58.777Z,101791.00
2022-08-09T22:57:59.440Z,101780.38
2022-08-09T23:00:50.985Z,101777.75
2022-08-09T23:04:04.183Z,101778.91
2022-08-09T23:06:59.484Z,101779.47
2022-08-09T23:09:41.013Z,101780.97
2022-08-09T23:12:30.793Z,101779.50
2022-08-09T23:15:13.113Z,101776.72
2022-08-09T23:18:00.748Z,101776.13
2022-08-09T23:20:41.999Z,101786.16
2022-08-09T23:23:29.767Z,101789.13
2022-08-09T23:26:11.633Z,101793.91
2022-08-09T23:28:59.416Z,101778.84
2022-08-09T23:31:44.249Z,101777.06
2022-08-09T23:34:31.935Z,101781.56
2022-08-09T23:37:13.889Z,101780.38
2022-08-09T23:40:08.190Z,101780.59
2022-08-09T23:42:48.648Z,101776.25
2022-08-09T23:45:38.876Z,101774.78
2022-08-09T23:48:32.690Z,101771.47
2022-08-09T23:51:21.227Z,101769.75
2022-08-09T23:54:03.829Z,101763.38
2022-08-09T23:56:56.116Z,101770.63
2022-08-09T23:59:57.235Z,101766.09
